createdAt,value
2019-05-26T00:04:56.392Z,10.37
2019-05-26T00:09:58.410Z,7.63
2019-05-26T00:15:00.443Z,9.87
2019-05-26T00:20:03.109Z,6.73
2019-05-26T00:25:05.261Z,8.17
2019-05-26T00:30:08.116Z,8.33
2019-05-26T00:35:10.353Z,11.07
2019-05-26T00:40:12.376Z,8.93
2019-05-26T00:45:14.864Z,11.70
2019-05-26T00:50:17.466Z,9.00
2019-05-26T00:55:19.515Z,9.07
2019-05-26T01:00:37.984Z,9.57
2019-05-26T01:05:40.525Z,10.30
2019-05-26T01:10:42.582Z,8.07
2019-05-26T01:15:44.669Z,11.60
2019-05-26T01:20:48.424Z,10.00
2019-05-26T01:25:50.473Z,10.17
2019-05-26T01:30:52.577Z,8.33
2019-05-26T01:35:54.892Z,12.23
2019-05-26T01:40:56.991Z,10.83
2019-05-26T01:45:59.101Z,8.97
2019-05-26T01:51:01.214Z,10.13
2019-05-26T01:56:05.394Z,13.63
2019-05-26T02:01:07.481Z,12.83
2019-05-26T02:06:09.529Z,10.07
2019-05-26T02:11:11.599Z,12.27
2019-05-26T02:16:13.638Z,10.03
2019-05-26T02:21:15.771Z,9.33
2019-05-26T02:26:18.585Z,11.93
2019-05-26T02:31:21.036Z,9.90
2019-05-26T02:36:23.173Z,11.77
2019-05-26T02:41:25.311Z,12.73
2019-05-26T02:46:27.404Z,11.47
2019-05-26T02:51:29.505Z,9.50
2019-05-26T02:56:31.829Z,12.00
2019-05-26T03:01:34.327Z,11.00
2019-05-26T03:06:37.700Z,10.83
2019-05-26T03:11:41.948Z,14.23
2019-05-26T03:16:46.395Z,12.10
2019-05-26T03:21:52.592Z,12.63
2019-05-26T03:26:55.838Z,11.00
2019-05-26T03:31:57.945Z,12.20
2019-05-26T03:37:00.015Z,15.33
2019-05-26T03:42:02.160Z,14.83
2019-05-26T03:47:04.237Z,13.90
2019-05-26T03:52:06.307Z,13.50
2019-05-26T03:57:09.873Z,13.97
2019-05-26T04:02:13.754Z,14.00
2019-05-26T04:07:15.818Z,11.27
2019-05-26T04:12:17.837Z,18.37
2019-05-26T04:17:19.932Z,15.03
2019-05-26T04:22:22.010Z,13.57
2019-05-26T04:27:24.226Z,15.17
2019-05-26T04:32:26.285Z,16.93
2019-05-26T04:37:28.367Z,14.57
2019-05-26T04:42:30.417Z,15.93
2019-05-26T04:47:32.502Z,14.20
2019-05-26T04:52:34.557Z,14.17
2019-05-26T04:57:36.626Z,15.33
2019-05-26T05:02:38.695Z,14.20
2019-05-26T05:07:40.790Z,11.40
2019-05-26T05:12:42.884Z,11.60
2019-05-26T05:17:44.940Z,10.87
2019-05-26T05:22:47.005Z,11.73
2019-05-26T05:27:49.101Z,10.37
2019-05-26T05:32:51.169Z,11.87
2019-05-26T05:37:53.262Z,9.43
2019-05-26T05:42:55.315Z,10.23
2019-05-26T05:47:59.538Z,9.77
2019-05-26T05:53:01.598Z,9.60
2019-05-26T05:58:03.698Z,9.85
2019-05-26T06:03:05.751Z,8.58
2019-05-26T06:08:07.838Z,8.45
2019-05-26T06:13:09.897Z,8.90
2019-05-26T06:18:11.996Z,6.87
2019-05-26T06:23:14.159Z,9.03
2019-05-26T06:28:18.244Z,6.92
2019-05-26T06:33:20.301Z,7.45
2019-05-26T06:38:22.346Z,6.70
2019-05-26T06:43:24.431Z,7.40
2019-05-26T06:48:27.137Z,6.33
2019-05-26T06:53:29.622Z,5.65
2019-05-26T06:58:31.719Z,7.30
2019-05-26T07:03:33.809Z,6.35
2019-05-26T07:08:35.974Z,6.08
2019-05-26T07:13:38.139Z,6.00
2019-05-26T07:18:40.289Z,6.95
2019-05-26T07:23:42.385Z,5.45
2019-05-26T07:28:44.491Z,5.30
2019-05-26T07:33:46.570Z,6.67
2019-05-26T07:38:49.942Z,6.37
2019-05-26T07:43:53.861Z,7.33
2019-05-26T07:48:55.953Z,7.25
2019-05-26T07:53:58.036Z,6.55
2019-05-26T07:59:00.173Z,9.48
2019-05-26T08:04:02.231Z,5.17
2019-05-26T08:09:06.908Z,5.58
2019-05-26T08:14:08.885Z,3.70
2019-05-26T08:19:13.484Z,4.72
2019-05-26T08:24:25.061Z,5.85
2019-05-26T08:29:27.220Z,6.35
2019-05-26T08:34:29.399Z,5.20
2019-05-26T08:39:31.657Z,2.92
2019-05-26T08:44:33.795Z,3.70
2019-05-26T08:49:35.870Z,3.90
2019-05-26T08:54:37.903Z,4.37
2019-05-26T08:59:39.996Z,5.20
2019-05-26T09:04:42.097Z,4.37
2019-05-26T09:09:44.285Z,4.85
2019-05-26T09:14:46.425Z,6.87
2019-05-26T09:19:48.472Z,5.30
2019-05-26T09:24:50.652Z,5.95
2019-05-26T09:29:52.741Z,5.95
2019-05-26T09:34:54.791Z,7.85
2019-05-26T09:39:58.257Z,6.87
2019-05-26T09:45:00.409Z,5.72
2019-05-26T09:50:04.695Z,6.03
2019-05-26T09:55:09.819Z,7.83
2019-05-26T10:00:16.168Z,4.40
2019-05-26T10:05:18.255Z,7.33
2019-05-26T10:10:28.565Z,5.80
2019-05-26T10:15:40.040Z,6.90
2019-05-26T10:20:43.981Z,5.92
2019-05-26T10:26:05.573Z,5.17
2019-05-26T10:31:07.710Z,5.25
2019-05-26T10:36:09.733Z,6.35
2019-05-26T10:41:11.808Z,6.10
2019-05-26T10:46:13.903Z,6.03
2019-05-26T10:51:16.101Z,5.83
2019-05-26T10:56:18.300Z,4.58
2019-05-26T11:01:21.600Z,4.47
2019-05-26T11:06:23.905Z,3.10
2019-05-26T11:11:35.765Z,6.17
2019-05-26T11:16:43.185Z,4.33
2019-05-26T11:21:50.031Z,4.55
2019-05-26T11:26:52.929Z,6.25
2019-05-26T11:31:55.197Z,7.85
2019-05-26T11:37:00.475Z,3.45
2019-05-26T11:42:12.775Z,2.17
2019-05-26T11:47:06.774Z,1.80
2019-05-26T11:52:08.932Z,2.55
2019-05-26T11:57:11.101Z,4.58
2019-05-26T12:02:13.151Z,4.17
2019-05-26T12:07:15.309Z,4.78
2019-05-26T12:12:17.648Z,4.08
2019-05-26T12:17:19.944Z,3.33
2019-05-26T12:22:22.027Z,6.15
2019-05-26T12:27:24.118Z,3.60
2019-05-26T12:32:26.298Z,1.82
2019-05-26T12:37:28.577Z,2.47
2019-05-26T12:42:30.643Z,5.37
2019-05-26T12:47:32.707Z,2.45
2019-05-26T12:52:34.768Z,1.62
2019-05-26T12:57:36.875Z,3.30
2019-05-26T13:02:38.932Z,2.60
2019-05-26T13:07:41.019Z,3.37
2019-05-26T13:12:43.210Z,3.70
2019-05-26T13:17:45.278Z,4.72
2019-05-26T13:22:47.456Z,1.35
2019-05-26T13:27:49.545Z,3.17
2019-05-26T13:32:51.630Z,2.92
2019-05-26T13:37:53.694Z,2.35
2019-05-26T13:42:55.702Z,2.58
2019-05-26T13:47:57.778Z,3.40
2019-05-26T13:52:59.962Z,1.67
2019-05-26T13:58:02.013Z,3.90
2019-05-26T14:03:04.172Z,1.80
2019-05-26T14:08:06.218Z,3.12
2019-05-26T14:13:08.293Z,3.10
2019-05-26T14:18:10.559Z,3.65
2019-05-26T14:23:12.601Z,4.75
2019-05-26T14:28:14.701Z,1.90
2019-05-26T14:33:16.796Z,2.42
2019-05-26T14:38:18.899Z,4.10
2019-05-26T14:43:20.962Z,2.85
2019-05-26T14:48:23.038Z,1.92
2019-05-26T14:53:25.066Z,2.30
2019-05-26T14:58:27.000Z,2.72
2019-05-26T15:03:29.054Z,1.87
2019-05-26T15:08:31.192Z,3.05
2019-05-26T15:13:33.267Z,2.37
2019-05-26T15:18:35.340Z,1.35
2019-05-26T15:23:37.369Z,1.52
2019-05-26T15:28:39.481Z,1.35
2019-05-26T15:33:41.562Z,3.37
2019-05-26T15:38:43.618Z,1.37
2019-05-26T15:43:45.654Z,2.47
2019-05-26T15:48:47.721Z,0.93
2019-05-26T15:53:49.781Z,2.85
2019-05-26T15:58:51.812Z,3.90
2019-05-26T16:03:53.897Z,2.12
2019-05-26T16:08:55.963Z,3.65
2019-05-26T16:13:58.205Z,3.27
2019-05-26T16:19:00.309Z,1.87
2019-05-26T16:24:02.440Z,1.35
2019-05-26T16:29:04.826Z,2.37
2019-05-26T16:34:07.020Z,1.22
2019-05-26T16:39:09.160Z,1.42
2019-05-26T16:44:11.387Z,2.02
2019-05-26T16:49:13.450Z,2.75
2019-05-26T16:54:15.566Z,1.62
2019-05-26T16:59:17.619Z,2.00
2019-05-26T17:04:19.820Z,1.85
2019-05-26T17:09:22.048Z,1.90
2019-05-26T17:14:24.093Z,1.45
2019-05-26T17:19:26.191Z,2.52
2019-05-26T17:24:28.202Z,1.65
2019-05-26T17:29:30.272Z,1.30
2019-05-26T17:34:32.370Z,1.37
2019-05-26T17:39:35.693Z,1.77
2019-05-26T17:44:37.986Z,1.67
2019-05-26T17:49:40.054Z,2.00
2019-05-26T17:54:42.038Z,1.47
2019-05-26T17:59:44.124Z,3.17
2019-05-26T18:04:48.458Z,1.02
2019-05-26T18:09:52.767Z,2.85
2019-05-26T18:14:54.832Z,3.17
2019-05-26T18:19:58.047Z,1.52
2019-05-26T18:25:00.231Z,4.75
2019-05-26T18:30:02.670Z,2.40
2019-05-26T18:35:07.661Z,2.58
2019-05-26T18:40:10.141Z,3.33
2019-05-26T18:45:12.273Z,3.43
2019-05-26T18:50:14.303Z,4.12
2019-05-26T18:55:16.494Z,4.37
2019-05-26T19:00:19.627Z,5.73
2019-05-26T19:05:32.877Z,7.80
2019-05-26T19:10:30.696Z,4.30
2019-05-26T19:15:32.793Z,3.87
2019-05-26T19:20:34.998Z,2.60
2019-05-26T19:25:37.068Z,1.95
2019-05-26T19:30:39.159Z,2.35
2019-05-26T19:35:41.238Z,5.30
2019-05-26T19:40:43.439Z,4.23
2019-05-26T19:45:45.568Z,3.30
2019-05-26T19:50:47.645Z,2.67
2019-05-26T19:55:49.683Z,3.03
2019-05-26T20:00:51.875Z,2.27
2019-05-26T20:05:53.915Z,1.90
2019-05-26T20:10:55.961Z,1.97
2019-05-26T20:15:58.167Z,2.83
2019-05-26T20:21:00.313Z,4.23
2019-05-26T20:26:02.475Z,2.33
2019-05-26T20:31:04.509Z,2.87
2019-05-26T20:36:06.637Z,3.17
2019-05-26T20:41:08.776Z,2.25
2019-05-26T20:46:10.945Z,2.83
2019-05-26T20:51:13.361Z,4.67
2019-05-26T20:56:15.552Z,2.57
2019-05-26T21:01:17.994Z,3.70
2019-05-26T21:06:25.716Z,3.47
2019-05-26T21:11:29.347Z,2.10
2019-05-26T21:16:31.598Z,3.80
2019-05-26T21:21:34.202Z,3.57
2019-05-26T21:26:36.442Z,2.33
2019-05-26T21:31:38.668Z,3.67
2019-05-26T21:36:40.888Z,3.27
2019-05-26T21:41:44.839Z,3.90
2019-05-26T21:46:46.861Z,4.47
2019-05-26T21:51:49.002Z,4.83
2019-05-26T21:56:51.344Z,3.67
2019-05-26T22:01:54.651Z,3.90
2019-05-26T22:06:59.263Z,5.90
2019-05-26T22:12:01.288Z,6.57
2019-05-26T22:17:03.409Z,8.17
2019-05-26T22:22:05.451Z,7.07
2019-05-26T22:27:07.518Z,10.30
2019-05-26T22:32:09.664Z,4.50
2019-05-26T22:37:11.783Z,9.83
2019-05-26T22:42:13.847Z,6.70
2019-05-26T22:47:15.961Z,8.77
2019-05-26T22:52:18.109Z,9.67
2019-05-26T22:57:20.266Z,6.53
2019-05-26T23:02:22.362Z,8.10
2019-05-26T23:07:24.592Z,5.77
2019-05-26T23:12:26.734Z,5.60
2019-05-26T23:17:28.813Z,3.50
2019-05-26T23:22:31.070Z,5.83
2019-05-26T23:27:33.124Z,6.20
2019-05-26T23:32:35.290Z,6.53
2019-05-26T23:37:37.353Z,4.13
2019-05-26T23:42:39.401Z,5.70
2019-05-26T23:47:41.540Z,8.80
2019-05-26T23:52:43.619Z,9.17
2019-05-26T23:57:45.819Z,7.80
